2. Juli 2022

Uhrzeit Code Wetter Temp. Sichtweite Wolkendecke Wind METAR/SPECI
8:50 am
V
63 °F 6¼ mi+ - 100° 100° 4 kt METAR EDTY 020650Z 10004KT 060V150 CAVOK 17/13 Q1024
8:20 am
V
59 °F 6¼ mi+ - 080° 080° 3 kt METAR EDTY 020620Z 08003KT 010V110 CAVOK 15/13 Q1024
7:50 am
V
57 °F 6¼ mi+ - Var Var 2 kt METAR EDTY 020550Z AUTO VRB02KT 9999 // NCD 14/12 Q1024
7:20 am
V
55 °F 6¼ mi+ - 090° 090° 3 kt METAR EDTY 020520Z AUTO 09003KT 9999 // NCD 13/12 Q1024
6:50 am
V
52 °F 6¼ mi+ - 090° 090° 4 kt METAR EDTY 020450Z AUTO 09004KT 9999 // NCD 11/10 Q1024
6:20 am
M
48 °F 3⅛ mi - 090° 090° 4 kt METAR EDTY 020420Z AUTO 09004KT 5000 // FEW003/// 09/09 Q1024
5:50 am
L
48 °F ⅜ mi - 090° 090° 3 kt METAR EDTY 020350Z AUTO 09003KT 0750 0700 R28/1000N // SCT003/// 09/09 Q1024
5:20 am
L
48 °F ½ mi - 100° 100° 2 kt METAR EDTY 020320Z AUTO 10002KT 1000 0800 R28/1400D // SCT001/// 09/09 Q1024
4:50 am
I
48 °F 1⅜ mi - 110° 110° 2 kt METAR EDTY 020250Z AUTO 11002KT 2200 // FEW001/// SCT003/// 09/09 Q1024
4:20 am
L
50 °F ⅝ mi - 090° 090° 3 kt METAR EDTY 020220Z AUTO 09003KT 3700 1100 R28/P2000N // FEW002/// 10/09 Q1024
3:50 am
V
50 °F 6¼ mi+ - 100° 100° 5 kt METAR EDTY 020150Z AUTO 10005KT 9999 // NCD 10/10 Q1024
3:20 am
V
48 °F 5⅝ mi - 100° 100° 5 kt METAR EDTY 020120Z AUTO 10005KT 9000 // NCD 09/09 Q1024
2:50 am
V
52 °F 6¼ mi+ - 100° 100° 3 kt METAR EDTY 020050Z AUTO 10003KT 9999 // NCD 11/10 Q1024
2:20 am
V
52 °F 6¼ mi+ - 100° 100° 3 kt METAR EDTY 020020Z AUTO 10003KT 9999 // NCD 11/11 Q1024
1:50 am
V
54 °F 6¼ mi+ - 150° 150° 2 kt METAR EDTY 012350Z AUTO 15002KT 9999 // NCD 12/11 Q1024
1:20 am
V
52 °F 6¼ mi+ - 090° 090° 5 kt METAR EDTY 012320Z AUTO 09005KT 9999 // NCD 11/10 Q1024
12:50 am
V
54 °F 6¼ mi+ - 080° 080° 3 kt METAR EDTY 012250Z AUTO 08003KT 9999 // NCD 12/11 Q1024
12:20 am
V
52 °F 6¼ mi+ - 050° 050° 2 kt METAR EDTY 012220Z AUTO 05002KT 9999 // NCD 11/10 Q1024

1. Juli 2022

Uhrzeit Code Wetter Temp. Sichtweite Wolkendecke Wind METAR/SPECI
11:50 pm
V
54 °F 6¼ mi+ - 060° 060° 2 kt METAR EDTY 012150Z AUTO 06002KT 9999 // NCD 12/10 Q1024
11:20 pm
V
57 °F 6¼ mi+ - 190° 190° 2 kt METAR EDTY 012120Z AUTO 19002KT 9999 // NCD 14/11 Q1023
10:50 pm
V
59 °F 6¼ mi+ - 170° 170° 2 kt METAR EDTY 012050Z AUTO 17002KT 9999 // NCD 15/11 Q1023
10:20 pm
V
61 °F 6¼ mi+ - 150° 150° 2 kt METAR EDTY 012020Z AUTO 15002KT 9999 // NCD 16/11 Q1023
9:50 pm
V
61 °F 6¼ mi+ - Var Var 2 kt METAR EDTY 011950Z AUTO VRB02KT 9999 // NCD 16/11 Q1023
9:20 pm
V
63 °F 6¼ mi+ - Var Var 2 kt METAR EDTY 011920Z AUTO VRB02KT 9999 // NCD 17/11 Q1022
8:50 pm
V
64 °F 6¼ mi+ - 210° 210° 4 kt METAR EDTY 011850Z 21004KT 180V250 CAVOK 18/10 Q1022
7:50 pm
V
66 °F 6¼ mi+ - 230° 230° 5 kt METAR EDTY 011750Z 23005KT 210V270 9999 FEW038 19/10 Q1022
7:20 pm
V
66 °F 6¼ mi+ - 230° 230° 6 kt METAR EDTY 011720Z 23006KT 190V260 9999 SCT037 19/11 Q1022
6:50 pm
V
66 °F 6¼ mi+ - 240° 240° 4 kt METAR EDTY 011650Z 24004KT 200V290 9999 FEW035 19/10 Q1021
6:20 pm
V
64 °F 6¼ mi+ - 220° 220° 5 kt METAR EDTY 011620Z 22005KT 190V280 9999 FEW035 18/10 Q1021
5:50 pm
V
66 °F 6¼ mi+ - 260° 260° 6 kt METAR EDTY 011550Z 26006KT 210V290 9999 FEW036 19/10 Q1021
5:20 pm
V
64 °F 6¼ mi+ 3.400 ft 260° 260° 6 kt METAR EDTY 011520Z 26006KT 210V330 9999 FEW030 BKN034 18/10 Q1021
4:50 pm
V
64 °F 6¼ mi+ 3.200 ft 230° 230° 7 kt METAR EDTY 011450Z 23007KT 190V280 9999 FEW028 BKN032 18/10 Q1021
4:20 pm
V
63 °F 6¼ mi+ - 220° 220° 5 kt METAR EDTY 011420Z 22005KT 190V270 9999 SCT025 17/10 Q1021
3:50 pm
V
63 °F 6¼ mi+ - 210° 210° 5 kt METAR EDTY 011350Z 21005KT 140V270 9999 FEW024 17/10 Q1021
3:20 pm
V
59 °F 6¼ mi+ - 220° 220° 4 kt METAR EDTY 011320Z 22004KT 180V310 9999 FEW018 15/11 Q1021
2:50 pm
V
59 °F 6¼ mi+ 4.600 ft 250° 250° 4 kt METAR EDTY 011250Z 25004KT 200V300 9999 FEW012 BKN046 15/12 Q1021
2:20 pm
V
59 °F 6¼ mi+ 4.000 ft 270° 270° 4 kt METAR EDTY 011220Z 27004KT 230V310 9999 SCT009 BKN040 15/11 Q1021
1:50 pm
M
57 °F 6¼ mi+ 1.300 ft 240° 240° 3 kt METAR EDTY 011150Z 24003KT 210V290 9999 SCT008 BKN013 BKN037 14/12 Q1021
1:20 pm
I
55 °F 6¼ mi+ 900 ft 250° 250° 4 kt METAR EDTY 011120Z 25004KT 220V280 9999 -RA FEW007 BKN009 OVC038 13/12 Q1021
12:50 pm
M
55 °F 6¼ mi+ 1.400 ft 270° 270° 3 kt METAR EDTY 011050Z 27003KT 9999 -RA SCT010 BKN014 13/12 Q1021
12:20 pm
V
55 °F 6¼ mi+ 3.100 ft 280° 280° 4 kt METAR EDTY 011020Z 28004KT 240V320 9999 -RA FEW010 OVC031 13/12 Q1021
11:50 am
V
55 °F 6¼ mi+ 4.000 ft 270° 270° 6 kt METAR EDTY 010950Z 27006KT 9999 -RA FEW009 SCT024 OVC040 13/12 Q1020
11:20 am
M
55 °F 6¼ mi+ 2.300 ft 260° 260° 5 kt METAR EDTY 010920Z 26005KT 230V290 9999 SCT009 BKN023 13/12 Q1020
10:50 am
V
55 °F 6¼ mi+ 3.700 ft 260° 260° 4 kt METAR EDTY 010850Z 26004KT 210V290 9999 -RA FEW008 SCT025 OVC037 13/12 Q1020
10:20 am
M
55 °F 6¼ mi+ 2.400 ft 270° 270° 4 kt METAR EDTY 010820Z 27004KT 240V300 9999 FEW008 SCT018 OVC024 13/12 Q1020
9:50 am
M
55 °F 6¼ mi+ 2.400 ft 270° 270° 6 kt METAR EDTY 010750Z 27006KT 9999 -RA FEW008 SCT020 OVC024 13/12 Q1019
9:20 am
V
55 °F 6¼ mi+ - 260° 260° 6 kt METAR EDTY 010720Z 26006KT 240V300 9999 -RA FEW009 SCT012 13/12 Q1019
8:50 am
M
55 °F 6¼ mi+ 1.100 ft 270° 270° 7 kt METAR EDTY 010650Z 27007KT 9999 BKN011 OVC047 13/11 Q1019
8:20 am
M
55 °F 6¼ mi+ 1.500 ft 280° 280° 8 kt METAR EDTY 010620Z 28008KT 260V320 9999 SCT009 BKN015 OVC046 13/11 Q1018
7:50 am
M
55 °F 6¼ mi+ 1.000 ft 270° 270° 6 kt METAR EDTY 010550Z 27006KT 9999 OVC010 13/12 Q1018
7:20 am
M
55 °F 6¼ mi+ 1.000 ft 280° 280° 7 kt METAR EDTY 010520Z 28007KT 240V300 9999 BKN010 OVC013 13/12 Q1018
6:50 am
V
55 °F 6¼ mi+ 3.200 ft 270° 270° 6 kt METAR EDTY 010450Z 27006KT 240V300 9999 FEW011 SCT013 OVC032 13/11 Q1018
6:20 am
V
55 °F 6¼ mi+ 3.200 ft 270° 270° 6 kt METAR EDTY 010420Z AUTO 27006KT 240V300 9999 // FEW011/// SCT013/// OVC032/// 13/11 Q1018
5:50 am
I
55 °F 6¼ mi+ 900 ft 270° 270° 8 kt METAR EDTY 010350Z AUTO 27008KT 9999 // BKN009/// OVC011/// 13/12 Q1017
5:20 am
I
55 °F 6¼ mi+ 900 ft 250° 250° 3 kt METAR EDTY 010320Z AUTO 25003KT 190V330 9999 // FEW006/// BKN009/// OVC015/// 13/12 Q1017
4:50 am
I
55 °F 6¼ mi+ 600 ft 230° 230° 4 kt METAR EDTY 010250Z AUTO 23004KT 200V280 9999 // BKN006/// BKN008/// OVC091/// 13/12 Q1016
4:20 am
I
55 °F 6¼ mi+ 600 ft 300° 300° 10 kt METAR EDTY 010220Z AUTO 30010KT 250V340 9999 // BKN006/// OVC087/// 13/12 Q1016
3:50 am
V
55 °F 5⅝ mi 7.000 ft 290° 290° 10 kt METAR EDTY 010150Z AUTO 29010KT 250V310 9000 // SCT008/// OVC070/// 13/12 Q1015
3:20 am
I
55 °F 6¼ mi+ 600 ft 280° 280° 3 kt METAR EDTY 010120Z AUTO 28003KT 230V310 9999 // OVC006/// 13/13 Q1017
2:50 am
I
55 °F 5⅝ mi 700 ft 250° 250° 7 kt METAR EDTY 010050Z AUTO 25007KT 9000 // BKN007/// OVC097/// 13/13 Q1017
2:20 am
I
57 °F 6¼ mi+ 600 ft 250° 250° 13 kt METAR EDTY 010020Z AUTO 25013KT 9999 // BKN006/// BKN017/// OVC100/// 14/13 Q1016
1:50 am
V
59 °F 6¼ mi+ 8.700 ft 280° 280° 15 kt METAR EDTY 302350Z AUTO 28015KT 9999 // FEW007/// BKN087/// OVC098/// 15/14 Q1015
1:20 am
V
59 °F 6¼ mi+ 10.000 ft 270° 270° 13 kt METAR EDTY 302320Z AUTO 27013KT 9999 // FEW008/// SCT080/// OVC100/// 15/14 Q1016
12:50 am
V
61 °F 5⅝ mi 9.300 ft 250° 250° 13 kt METAR EDTY 302250Z AUTO 25013KT 9000 // FEW030/// SCT067/// OVC093/// 16/14 Q1016
12:20 am
V
63 °F 6¼ mi+ 10.000 ft 250° 250° 9 kt METAR EDTY 302220Z AUTO 25009KT 9999 // FEW052/// OVC100/// 17/15 Q1015

30. Juni 2022

Uhrzeit Code Wetter Temp. Sichtweite Wolkendecke Wind METAR/SPECI
11:50 pm
V
64 °F 6¼ mi+ 10.000 ft 260° 260° 12 kt METAR EDTY 302150Z AUTO 26012KT 240V300 9999 // FEW016/// OVC100/// 18/15 Q1015
11:20 pm
V
72 °F 6¼ mi+ 13.000 ft 270° 270° 11 kt METAR EDTY 302120Z AUTO 27011KT 9999 // FEW073/// SCT110/// OVC130/// 22/15 Q1013
10:50 pm
V
70 °F 6¼ mi+ 15.000 ft 280° 280° 5 kt METAR EDTY 302050Z AUTO 28005KT 9999 // BKN150/// BKN170/// 21/16 Q1013
10:20 pm
V
70 °F 6¼ mi+ 14.000 ft 230° 230° 3 kt METAR EDTY 302020Z AUTO 23003KT 200V260 9999 // BKN140/// BKN210/// 21/15 Q1012
9:50 pm
V
72 °F 6¼ mi+ - 260° 260° 8 kt METAR EDTY 301950Z 26008KT CAVOK 22/14 Q1012
9:20 pm
V
73 °F 6¼ mi+ - 220° 220° 5 kt METAR EDTY 301920Z 22005KT 170V260 CAVOK 23/16 Q1012
8:50 pm
V
75 °F 6¼ mi+ - 210° 210° 4 kt METAR EDTY 301850Z 21004KT 150V250 CAVOK 24/16 Q1012
8:20 pm
V
77 °F 6¼ mi+ - 130° 130° 5 kt METAR EDTY 301820Z 13005KT 080V170 9999 FEW050CB 25/16 Q1011
7:50 pm
V
77 °F 6¼ mi+ - 290° 290° 1 kt METAR EDTY 301750Z 29001KT 9999 VCTS FEW037CB 25/15 Q1010 RETS
7:20 pm
V
79 °F 6¼ mi+ - 350° 350° 4 kt METAR EDTY 301720Z 35004KT 310V010 9999 TS SCT048CB 26/15 Q1010
6:50 pm
V
81 °F 6¼ mi+ - 270° 270° 9 kt METAR EDTY 301650Z 27009KT 9999 TS FEW090CB 27/14 Q1010
6:20 pm
V
82 °F 6¼ mi+ - Var Var 2 kt METAR EDTY 301620Z VRB02KT 9999 VCSH FEW090CB 28/14 Q1011
5:50 pm
V
84 °F 6¼ mi+ - 160° 160° 4 kt METAR EDTY 301550Z 16004KT 120V210 CAVOK 29/13 Q1011
5:20 pm
V
84 °F 6¼ mi+ - Var Var 3 kt METAR EDTY 301520Z VRB03KT CAVOK 29/13 Q1010
4:50 pm
V
86 °F 6¼ mi+ - Var Var 5 kt METAR EDTY 301450Z VRB05KT CAVOK 30/14 Q1010
4:20 pm
V
84 °F 6¼ mi+ - 080° 080° 6 kt METAR EDTY 301420Z 08006KT 050V140 CAVOK 29/14 Q1011
3:50 pm
V
86 °F 6¼ mi+ - Var Var 5 kt METAR EDTY 301350Z VRB05KT CAVOK 30/14 Q1011
3:20 pm
V
84 °F 6¼ mi+ - 120° 120° 7 kt METAR EDTY 301320Z 12007KT 080V180 CAVOK 29/14 Q1011
2:50 pm
V
84 °F 6¼ mi+ - Var Var 3 kt METAR EDTY 301250Z VRB03KT CAVOK 29/14 Q1011
2:20 pm
V
84 °F 6¼ mi+ - Var Var 3 kt METAR EDTY 301220Z VRB03KT CAVOK 29/14 Q1011
1:50 pm
V
82 °F 6¼ mi+ - Var Var 7 kt METAR EDTY 301150Z VRB07KT CAVOK 28/13 Q1012
1:20 pm
V
81 °F 6¼ mi+ - Var Var 4 kt METAR EDTY 301120Z VRB04KT CAVOK 27/14 Q1012
12:50 pm
V
82 °F 6¼ mi+ - Var Var 4 kt METAR EDTY 301050Z VRB04KT CAVOK 28/15 Q1012
12:20 pm
V
79 °F 6¼ mi+ - Var Var 3 kt METAR EDTY 301020Z VRB03KT CAVOK 26/14 Q1012
11:50 am
V
79 °F 6¼ mi+ - Var Var 2 kt METAR EDTY 300950Z VRB02KT 9999 SCT049 26/16 Q1012
11:20 am
V
79 °F 6¼ mi+ - 080° 080° 3 kt METAR EDTY 300920Z 08003KT 320V130 9999 SCT046 26/15 Q1013
10:50 am
V
77 °F 6¼ mi+ - 100° 100° 3 kt METAR EDTY 300850Z 10003KT 040V200 9999 FEW041 25/15 Q1013
10:20 am
V
77 °F 6¼ mi+ - Var Var 3 kt METAR EDTY 300820Z VRB03KT CAVOK 25/15 Q1013
9:50 am
V
77 °F 6¼ mi+ - 110° 110° 5 kt METAR EDTY 300750Z 11005KT 060V140 CAVOK 25/16 Q1013
9:20 am
V
75 °F 6¼ mi+ - 080° 080° 4 kt METAR EDTY 300720Z 08004KT 050V130 CAVOK 24/16 Q1013
8:50 am
V
73 °F 6¼ mi+ - Var 000° 0 kt METAR EDTY 300650Z 00000KT CAVOK 23/17 Q1013
8:20 am
V
70 °F 6¼ mi+ - Var 000° 0 kt METAR EDTY 300620Z 00000KT CAVOK 21/17 Q1013
7:50 am
V
66 °F 6¼ mi+ - Var Var 2 kt METAR EDTY 300550Z VRB02KT CAVOK 19/16 Q1013
7:20 am
V
66 °F 6¼ mi+ - Var Var 1 kt METAR EDTY 300520Z VRB01KT CAVOK 19/16 Q1013
Ältere Daten

Laden Sie unsere App herunter

Einfacher Zugriff auf das gesamte Flugwetter auf Ihrem Mobiltelefon und Tablet.
Mit vielen Funktionen, die auf der Website nicht verfügbar sind, wie Offline-Unterstützung und eine persönliche Flughafenliste.

Wir und Dritte verfolgen dein Internetverhalten auf unserer Website mit Cookies. Wenn du fortfährst, gehen wir davon aus, dass du mit unserer Cookie-Richtlinie einverstanden bist. Mehr erfahren